Time;durP1;ratioP1;P1;durP2;ratioP2;P2;SDS_P1;SDS_P2;PMS_P1;PMS_P2;Temp;Humidity;BMP_temperature;BMP_pressure;BME280_temperature;BME280_humidity;BME280_pressure;Samples;Min_cycle;Max_cycle;Signal;HPM_P1;HPM_P2
2023/02/26 00:01:32;;;;;;;6.05;1.60;;;29.50;94.60;;;;;;5048389;28;20589;-62
2023/02/26 00:04:01;;;;;;;3.42;1.27;;;29.70;93.80;;;;;;5049377;28;20032;-62
2023/02/26 00:06:32;;;;;;;2.60;0.95;;;29.70;92.30;;;;;;5046285;28;20029;-63
2023/02/26 00:08:59;;;;;;;6.15;1.80;;;29.80;94.40;;;;;;5028918;28;20053;-63
2023/02/26 00:11:27;;;;;;;10.10;2.40;;;29.80;91.50;;;;;;5043546;28;20387;-64
2023/02/26 00:13:55;;;;;;;6.03;1.73;;;29.60;90.90;;;;;;5046740;28;20028;-64
2023/02/26 00:16:31;;;;;;;5.65;1.13;;;29.40;91.60;;;;;;5049094;28;20515;-63
2023/02/26 00:19:01;;;;;;;5.18;1.98;;;29.40;92.40;;;;;;5040234;28;20510;-63
2023/02/26 00:21:30;;;;;;;7.72;1.75;;;29.70;92.80;;;;;;5031242;28;20086;-64
2023/02/26 00:23:59;;;;;;;5.95;1.60;;;30.00;92.10;;;;;;5047220;28;20032;-64
2023/02/26 00:26:28;;;;;;;6.15;1.83;;;30.40;92.70;;;;;;5035674;28;20037;-62
2023/02/26 00:28:56;;;;;;;6.80;1.70;;;30.80;94.40;;;;;;5030874;28;20025;-61
2023/02/26 00:31:24;;;;;;;11.00;2.83;;;31.00;92.90;;;;;;5031561;28;20124;-61
2023/02/26 00:33:53;;;;;;;7.03;1.90;;;31.20;91.70;;;;;;5049135;28;20033;-61
2023/02/26 00:36:25;;;;;;;3.38;1.38;;;31.60;84.30;;;;;;5049180;28;20759;-65
2023/02/26 00:39:18;;;;;;;7.90;2.70;;;31.30;78.90;;;;;;5038773;28;20033;-65
2023/02/26 00:41:46;;;;;;;5.72;1.70;;;31.30;81.40;;;;;;5064313;28;20503;-64
2023/02/26 00:44:13;;;;;;;6.07;2.10;;;31.50;80.50;;;;;;5071303;28;20606;-65
2023/02/26 00:46:55;;;;;;;8.25;2.58;;;31.40;83.80;;;;;;5065513;28;20025;-64
2023/02/26 00:49:44;;;;;;;6.65;1.98;;;31.50;79.60;;;;;;5051373;28;20045;-67
2023/02/26 00:52:27;;;;;;;3.17;1.27;;;31.70;82.20;;;;;;5051069;28;20469;-64
2023/02/26 00:54:54;;;;;;;7.57;2.45;;;31.90;85.00;;;;;;5049735;28;20035;-63
2023/02/26 00:57:21;;;;;;;5.70;1.75;;;32.30;84.50;;;;;;5052001;28;20056;-64
2023/02/26 00:59:49;;;;;;;2.60;0.95;;;32.30;77.70;;;;;;5052748;28;20040;-64
2023/02/26 01:02:16;;;;;;;8.13;2.03;;;32.50;74.30;;;;;;5047393;28;20413;-65
2023/02/26 01:04:45;;;;;;;5.50;1.75;;;32.50;75.70;;;;;;5051124;28;20013;-65
2023/02/26 01:07:13;;;;;;;4.35;1.30;;;32.50;74.60;;;;;;5050950;28;20044;-64
2023/02/26 01:09:41;;;;;;;5.20;1.50;;;32.50;74.50;;;;;;5048324;28;20576;-64
2023/02/26 01:12:16;;;;;;;6.47;1.20;;;32.60;75.90;;;;;;5049999;28;20040;-63
2023/02/26 01:14:46;;;;;;;5.95;1.48;;;32.90;71.50;;;;;;5050813;28;20029;-64
2023/02/26 01:17:23;;;;;;;4.38;0.75;;;33.00;74.70;;;;;;5052038;28;20025;-64
2023/02/26 01:20:28;;;;;;;3.92;1.00;;;33.00;69.10;;;;;;5052479;28;20056;-63
2023/02/26 01:23:06;;;;;;;3.40;1.17;;;33.00;72.70;;;;;;5034185;28;20045;-65
2023/02/26 01:25:42;;;;;;;5.38;1.15;;;32.90;74.50;;;;;;5045682;28;20025;-63
2023/02/26 01:28:10;;;;;;;4.85;0.93;;;32.80;68.30;;;;;;5031860;28;20036;-64
2023/02/26 01:30:38;;;;;;;2.55;1.15;;;33.00;71.40;;;;;;5044251;28;20025;-64
2023/02/26 01:33:21;;;;;;;6.40;1.02;;;33.30;72.00;;;;;;5050519;28;20049;-63
2023/02/26 01:35:53;;;;;;;4.28;1.23;;;33.40;72.10;;;;;;5050196;28;20112;-64
2023/02/26 01:38:44;;;;;;;4.57;1.10;;;33.40;70.70;;;;;;5041939;28;20500;-64
2023/02/26 01:41:38;;;;;;;6.63;1.08;;;33.60;67.20;;;;;;5048633;28;20626;-63
2023/02/26 01:44:08;;;;;;;2.78;0.98;;;33.70;65.20;;;;;;5049796;28;20025;-63
2023/02/26 01:47:03;;;;;;;3.47;0.80;;;34.10;63.90;;;;;;5049302;28;20489;-62
2023/02/26 01:49:31;;;;;;;7.35;1.23;;;34.50;65.80;;;;;;5032852;28;20025;-62
2023/02/26 01:52:01;;;;;;;3.47;1.20;;;34.60;65.40;;;;;;5049095;28;20363;-63
2023/02/26 01:54:37;;;;;;;1.60;1.00;;;34.60;61.90;;;;;;5048356;28;20036;-62
2023/02/26 01:57:10;;;;;;;5.60;1.88;;;34.40;63.90;;;;;;5067015;28;20082;-61
2023/02/26 01:59:44;;;;;;;5.25;1.20;;;34.40;64.40;;;;;;5051250;28;20363;-63
2023/02/26 02:02:12;;;;;;;;;;;34.50;61.10;;;;;;5047253;28;20493;-63
2023/02/26 02:04:41;;;;;;;5.80;2.03;;;34.40;60.30;;;;;;5050185;28;19909;-63
2023/02/26 02:07:09;;;;;;;4.38;1.70;;;34.30;58.70;;;;;;5049961;28;20033;-63
2023/02/26 02:09:37;;;;;;;6.55;1.50;;;34.20;60.10;;;;;;5048752;28;20044;-63
2023/02/26 02:12:23;;;;;;;5.90;1.60;;;34.10;59.90;;;;;;5049981;28;20109;-63
2023/02/26 02:15:29;;;;;;;3.28;1.30;;;34.00;59.70;;;;;;5049881;28;20025;-63
2023/02/26 02:18:08;;;;;;;6.45;1.70;;;34.00;60.00;;;;;;5050987;28;20090;-63
2023/02/26 02:20:59;;;;;;;6.28;2.25;;;34.10;59.80;;;;;;5049608;28;20040;-63
2023/02/26 02:23:30;;;;;;;6.40;1.85;;;33.90;58.00;;;;;;5048009;28;20040;-63
2023/02/26 02:26:19;;;;;;;6.65;2.03;;;34.00;59.50;;;;;;5044737;28;20500;-62
2023/02/26 02:29:16;;;;;;;6.43;1.85;;;34.10;57.70;;;;;;5048316;28;20025;-62
2023/02/26 02:31:57;;;;;;;6.45;1.85;;;34.40;55.60;;;;;;4928219;28;3243707;-63
2023/02/26 02:34:47;;;;;;;5.20;1.50;;;34.20;55.40;;;;;;5050547;28;20033;-66
2023/02/26 02:37:24;;;;;;;3.70;1.20;;;34.20;55.90;;;;;;5047591;28;20028;-63
2023/02/26 02:39:55;;;;;;;4.57;1.58;;;34.40;56.20;;;;;;5050043;28;20025;-63
2023/02/26 02:42:37;;;;;;;10.77;6.15;;;34.30;55.10;;;;;;5036150;28;20055;-63
2023/02/26 02:45:12;;;;;;;8.52;2.20;;;34.30;54.40;;;;;;5040007;28;20013;-64
2023/02/26 02:47:42;;;;;;;7.60;2.35;;;34.50;55.00;;;;;;5038475;28;20109;-63
2023/02/26 02:50:10;;;;;;;3.70;1.65;;;34.90;56.10;;;;;;5033990;28;20425;-63
2023/02/26 02:52:49;;;;;;;5.18;1.40;;;35.10;54.70;;;;;;5034531;28;20025;-64
2023/02/26 02:55:40;;;;;;;5.47;1.52;;;35.20;53.40;;;;;;5050401;28;20025;-63
2023/02/26 02:58:12;;;;;;;2.53;1.33;;;35.30;54.40;;;;;;5030348;28;20124;-63
2023/02/26 03:00:46;;;;;;;2.75;0.70;;;35.80;54.80;;;;;;5036810;28;20029;-63
2023/02/26 03:03:23;;;;;;;;;;;35.50;50.00;;;;;;5040076;28;20108;-63
2023/02/26 03:05:51;;;;;;;3.22;1.15;;;35.60;50.80;;;;;;5046351;28;20003;-64
2023/02/26 03:08:24;;;;;;;2.40;0.90;;;35.80;53.60;;;;;;5047330;28;20029;-65
2023/02/26 03:10:51;;;;;;;2.97;0.83;;;35.70;51.80;;;;;;5048613;28;20036;-64
2023/02/26 03:13:22;;;;;;;2.83;0.98;;;35.80;50.90;;;;;;5042043;28;20036;-63
2023/02/26 03:16:12;;;;;;;3.72;1.15;;;35.50;51.80;;;;;;5048524;28;20013;-63
2023/02/26 03:18:45;;;;;;;6.15;1.27;;;35.50;53.40;;;;;;5036343;28;20112;-64
2023/02/26 03:21:30;;;;;;;4.75;1.38;;;35.70;52.00;;;;;;5037659;28;20037;-64
2023/02/26 03:24:21;;;;;;;4.50;0.77;;;35.60;51.80;;;;;;5032376;28;20033;-64
2023/02/26 03:27:08;;;;;;;4.32;1.00;;;35.90;54.60;;;;;;5047538;28;20025;-63
2023/02/26 03:29:38;;;;;;;2.80;1.13;;;35.90;52.20;;;;;;5028051;28;20026;-63
2023/02/26 03:32:12;;;;;;;2.90;0.85;;;36.20;52.60;;;;;;5038996;28;20619;-64
2023/02/26 03:34:40;;;;;;;3.55;0.75;;;36.40;55.90;;;;;;5045419;28;20066;-65
2023/02/26 03:37:19;;;;;;;3.42;1.10;;;36.90;54.40;;;;;;5047520;28;20021;-63
2023/02/26 03:39:55;;;;;;;5.70;1.30;;;36.80;52.20;;;;;;5033759;28;20029;-64
2023/02/26 03:42:34;;;;;;;4.80;1.23;;;36.30;48.90;;;;;;5050073;28;20033;-63
2023/02/26 03:45:10;;;;;;;2.00;0.80;;;36.20;50.20;;;;;;5049626;28;20025;-62
2023/02/26 03:47:39;;;;;;;3.63;1.25;;;36.10;49.80;;;;;;5049840;28;20533;-62
2023/02/26 03:50:27;;;;;;;2.67;0.82;;;36.10;49.10;;;;;;5049859;28;20021;-62
2023/02/26 03:52:55;;;;;;;5.72;1.35;;;35.80;50.20;;;;;;5049264;28;20501;-64
2023/02/26 03:55:41;;;;;;;1.98;0.68;;;35.90;51.10;;;;;;5049861;28;20551;-62
2023/02/26 03:58:08;;;;;;;1.63;0.60;;;36.10;50.30;;;;;;5048707;28;20029;-62
2023/02/26 04:00:40;;;;;;;3.10;0.85;;;36.10;48.40;;;;;;5048680;28;20021;-63
2023/02/26 04:03:23;;;;;;;1.58;0.60;;;35.70;49.50;;;;;;5042781;28;20029;-63
2023/02/26 04:05:51;;;;;;;;;;;35.70;51.40;;;;;;5030762;28;20030;-62
2023/02/26 04:08:22;;;;;;;2.97;0.70;;;35.50;49.30;;;;;;5047318;28;20003;-63
2023/02/26 04:10:57;;;;;;;4.10;0.80;;;35.20;49.70;;;;;;5046154;28;20098;-63
2023/02/26 04:13:25;;;;;;;2.30;0.90;;;35.50;51.30;;;;;;5049334;28;20045;-64
2023/02/26 04:15:52;;;;;;;5.10;0.80;;;35.60;48.90;;;;;;5048463;28;20029;-63
2023/02/26 04:18:20;;;;;;;2.55;1.05;;;35.90;49.20;;;;;;5051084;28;20016;-63
2023/02/26 04:20:47;;;;;;;5.13;0.90;;;36.00;48.40;;;;;;5052094;28;20040;-63
2023/02/26 04:23:14;;;;;;;3.70;0.68;;;36.40;48.40;;;;;;5048127;28;20417;-64
2023/02/26 04:25:42;;;;;;;2.08;0.77;;;36.50;50.80;;;;;;5054019;28;20444;-63
2023/02/26 04:28:09;;;;;;;2.58;0.70;;;36.70;50.50;;;;;;5049590;28;20017;-63
2023/02/26 04:30:37;;;;;;;1.27;0.43;;;36.80;49.20;;;;;;5054168;28;20056;-62
2023/02/26 04:33:05;;;;;;;2.72;0.68;;;36.80;48.50;;;;;;5050318;28;20047;-63
2023/02/26 04:35:32;;;;;;;4.18;0.77;;;36.70;50.00;;;;;;5067842;28;20028;-63
2023/02/26 04:37:59;;;;;;;2.33;0.77;;;36.50;48.50;;;;;;5055066;28;20033;-63
2023/02/26 04:40:27;;;;;;;0.98;0.50;;;36.30;49.50;;;;;;5059028;28;20503;-62
2023/02/26 04:42:54;;;;;;;3.38;0.88;;;36.00;48.90;;;;;;5049592;28;20032;-63
2023/02/26 04:45:22;;;;;;;3.03;0.60;;;35.80;48.60;;;;;;5054713;28;20020;-62
2023/02/26 04:47:49;;;;;;;3.03;1.23;;;35.60;48.90;;;;;;5059210;28;20071;-63
2023/02/26 04:50:17;;;;;;;3.17;0.77;;;35.60;48.20;;;;;;5062006;28;20048;-62
2023/02/26 04:52:44;;;;;;;1.55;0.80;;;35.30;48.30;;;;;;5048960;28;20040;-62
2023/02/26 04:55:11;;;;;;;4.10;1.27;;;35.30;48.20;;;;;;5050857;28;20055;-63
2023/02/26 04:57:39;;;;;;;2.30;0.60;;;35.30;50.60;;;;;;5047380;28;20040;-62
2023/02/26 05:00:07;;;;;;;2.13;0.63;;;35.30;50.60;;;;;;5046558;28;20036;-62
2023/02/26 05:02:35;;;;;;;5.57;0.70;;;35.40;51.40;;;;;;5044995;28;20036;-63
2023/02/26 05:05:02;;;;;;;3.88;0.98;;;35.50;50.80;;;;;;5044948;28;20027;-63
2023/02/26 05:07:29;;;;;;;3.53;0.80;;;35.70;50.40;;;;;;5043271;28;20074;-63
2023/02/26 05:09:57;;;;;;;3.05;0.90;;;35.80;48.70;;;;;;5047331;28;20013;-65
2023/02/26 05:12:24;;;;;;;4.85;0.95;;;35.90;51.20;;;;;;5047339;28;20170;-66
2023/02/26 05:14:52;;;;;;;4.13;1.05;;;36.10;48.30;;;;;;5050571;28;20496;-64
2023/02/26 05:17:19;;;;;;;3.55;0.70;;;36.30;49.10;;;;;;5048047;28;20039;-63
2023/02/26 05:19:47;;;;;;;6.97;0.70;;;36.30;49.10;;;;;;5047348;28;20455;-64
2023/02/26 05:22:14;;;;;;;3.53;1.00;;;36.20;49.00;;;;;;5042627;28;20037;-65
2023/02/26 05:24:42;;;;;;;2.92;0.80;;;36.20;46.80;;;;;;5047006;28;20029;-64
2023/02/26 05:27:10;;;;;;;1.45;0.60;;;36.00;48.00;;;;;;5049967;28;20021;-64
2023/02/26 05:29:39;;;;;;;4.22;0.77;;;35.70;47.70;;;;;;5048742;28;20030;-64
2023/02/26 05:32:07;;;;;;;2.28;0.98;;;35.40;47.90;;;;;;5048703;28;20041;-64
2023/02/26 05:34:34;;;;;;;2.22;0.70;;;35.30;48.80;;;;;;5050561;28;20044;-64
2023/02/26 05:37:02;;;;;;;3.08;0.93;;;35.30;48.10;;;;;;5051260;28;20087;-64
2023/02/26 05:39:29;;;;;;;3.55;1.13;;;35.30;48.40;;;;;;5050542;28;20025;-65
2023/02/26 05:41:57;;;;;;;3.95;0.70;;;35.30;48.30;;;;;;5051786;28;20040;-65
2023/02/26 05:44:24;;;;;;;4.38;1.10;;;35.30;47.80;;;;;;5051567;28;20021;-65
2023/02/26 05:46:52;;;;;;;2.95;0.57;;;35.30;48.20;;;;;;5052761;28;20100;-66
2023/02/26 05:49:19;;;;;;;2.80;0.70;;;35.30;49.20;;;;;;5052163;28;20044;-67
2023/02/26 05:51:47;;;;;;;1.48;0.52;;;35.30;49.00;;;;;;5053970;28;20108;-59
2023/02/26 05:54:14;;;;;;;2.08;1.10;;;35.20;49.40;;;;;;5069251;28;20021;-59
2023/02/26 05:56:42;;;;;;;1.52;0.60;;;35.00;47.30;;;;;;5046656;28;20439;-59
2023/02/26 05:59:09;;;;;;;4.25;0.80;;;34.70;48.30;;;;;;5050990;28;20029;-60
2023/02/26 06:01:37;;;;;;;5.05;0.95;;;34.50;49.20;;;;;;5050072;28;20093;-60
2023/02/26 06:04:05;;;;;;;1.75;0.70;;;34.30;49.60;;;;;;5051198;28;20523;-62
2023/02/26 06:06:33;;;;;;;4.65;1.55;;;34.10;49.40;;;;;;5051959;28;20056;-61
2023/02/26 06:09:01;;;;;;;3.67;1.40;;;33.90;49.30;;;;;;5050989;28;20014;-61
2023/02/26 06:11:32;;;;;;;2.85;1.02;;;33.80;49.40;;;;;;5051442;28;20033;-61
2023/02/26 06:13:59;;;;;;;4.32;0.60;;;33.70;50.00;;;;;;5051415;28;20641;-61
2023/02/26 06:16:27;;;;;;;2.33;0.80;;;33.50;50.00;;;;;;5050086;28;20021;-61
2023/02/26 06:18:54;;;;;;;4.45;0.93;;;33.50;51.20;;;;;;5050084;28;20482;-61
2023/02/26 06:21:22;;;;;;;3.30;0.80;;;33.20;51.60;;;;;;5048788;28;20512;-61
2023/02/26 06:23:49;;;;;;;6.03;1.85;;;32.70;54.50;;;;;;5049423;28;20025;-61
2023/02/26 06:26:16;;;;;;;5.40;0.88;;;32.30;56.30;;;;;;5049663;28;20021;-61
2023/02/26 06:28:44;;;;;;;4.22;0.90;;;32.00;56.80;;;;;;5048445;28;20116;-61
2023/02/26 06:31:11;;;;;;;5.00;1.55;;;31.70;58.90;;;;;;5050047;28;20021;-62
2023/02/26 06:33:39;;;;;;;4.07;1.23;;;31.60;60.00;;;;;;5051415;28;20041;-62
2023/02/26 06:36:07;;;;;;;2.97;0.90;;;31.70;59.00;;;;;;5050154;28;20039;-62
2023/02/26 06:38:34;;;;;;;4.30;1.15;;;31.80;61.90;;;;;;5051355;28;20025;-61
2023/02/26 06:41:01;;;;;;;1.75;0.70;;;31.80;59.10;;;;;;5051150;28;20178;-61
2023/02/26 06:43:29;;;;;;;2.50;0.80;;;31.70;56.40;;;;;;5051322;28;20021;-61
2023/02/26 06:46:00;;;;;;;5.40;0.80;;;31.60;57.70;;;;;;5051338;28;20108;-62
2023/02/26 06:48:27;;;;;;;3.50;0.90;;;31.50;57.10;;;;;;5050728;28;20027;-61
2023/02/26 06:50:55;;;;;;;2.35;0.90;;;31.40;57.00;;;;;;5051538;28;20033;-63
2023/02/26 06:53:22;;;;;;;2.33;0.70;;;31.40;57.50;;;;;;5051559;28;20021;-62
2023/02/26 06:55:52;;;;;;;1.80;0.65;;;31.50;58.50;;;;;;5051005;28;20036;-62
2023/02/26 06:58:19;;;;;;;2.90;0.95;;;31.50;58.30;;;;;;5050951;28;20020;-62
2023/02/26 07:00:47;;;;;;;7.38;0.80;;;31.60;58.70;;;;;;5050927;28;20022;-62
2023/02/26 07:03:17;;;;;;;1.92;0.80;;;31.70;57.80;;;;;;5050840;28;20029;-61
2023/02/26 07:05:45;;;;;;;3.78;1.63;;;31.80;58.70;;;;;;5051000;28;20485;-61
2023/02/26 07:08:14;;;;;;;3.00;0.70;;;31.80;56.80;;;;;;5050801;28;20112;-62
2023/02/26 07:10:42;;;;;;;3.10;0.70;;;31.80;57.20;;;;;;5050724;28;20077;-61
2023/02/26 07:13:10;;;;;;;4.50;0.70;;;31.70;57.30;;;;;;5048938;28;20032;-62
2023/02/26 07:15:37;;;;;;;4.53;0.77;;;31.70;57.00;;;;;;5050822;28;20052;-61
2023/02/26 07:18:04;;;;;;;2.17;0.45;;;31.60;56.70;;;;;;5050762;28;20520;-62
2023/02/26 07:20:32;;;;;;;1.50;0.60;;;31.60;56.50;;;;;;5050473;28;20031;-62
2023/02/26 07:23:01;;;;;;;2.25;0.80;;;31.50;56.00;;;;;;5050335;28;20401;-62
2023/02/26 07:25:29;;;;;;;4.10;1.27;;;31.50;57.70;;;;;;5050310;28;20108;-62
2023/02/26 07:27:57;;;;;;;6.93;1.17;;;31.50;60.20;;;;;;5050794;28;20079;-62
2023/02/26 07:30:24;;;;;;;4.65;1.17;;;31.20;62.70;;;;;;5050416;28;20063;-61
2023/02/26 07:32:52;;;;;;;4.13;0.93;;;31.00;66.00;;;;;;5050782;28;20102;-61
2023/02/26 07:35:19;;;;;;;4.43;1.00;;;30.60;67.60;;;;;;5050384;28;20028;-61
2023/02/26 07:37:47;;;;;;;3.97;1.30;;;30.30;69.40;;;;;;5049593;28;20036;-61
2023/02/26 07:40:15;;;;;;;6.13;1.17;;;30.00;72.00;;;;;;5049094;28;20429;-61
2023/02/26 07:42:42;;;;;;;6.63;1.35;;;29.80;73.50;;;;;;5050049;28;20116;-61
2023/02/26 07:45:10;;;;;;;4.35;0.95;;;29.70;75.10;;;;;;5050175;28;20541;-61
2023/02/26 07:47:37;;;;;;;5.13;0.90;;;29.50;77.40;;;;;;5049486;28;20044;-61
2023/02/26 07:50:05;;;;;;;6.57;1.02;;;29.40;77.70;;;;;;5049886;28;20029;-61
2023/02/26 07:52:33;;;;;;;2.85;1.20;;;29.30;79.30;;;;;;5050062;28;20032;-61
2023/02/26 07:55:00;;;;;;;9.70;3.53;;;29.20;80.60;;;;;;5048779;28;20060;-61
2023/02/26 07:57:27;;;;;;;6.00;1.85;;;29.20;80.20;;;;;;5049811;28;20051;-61
2023/02/26 07:59:55;;;;;;;6.72;3.20;;;29.20;79.70;;;;;;5050562;28;20036;-61
2023/02/26 08:02:22;;;;;;;7.13;1.80;;;29.30;80.20;;;;;;5050406;28;20074;-61
2023/02/26 08:04:50;;;;;;;3.22;1.17;;;29.20;80.90;;;;;;5050030;28;20539;-61
2023/02/26 08:07:17;;;;;;;5.03;1.48;;;29.20;80.30;;;;;;5049690;28;20162;-61
2023/02/26 08:09:45;;;;;;;3.95;1.33;;;29.20;80.50;;;;;;5048496;28;20506;-61
2023/02/26 08:12:12;;;;;;;4.43;1.58;;;29.20;80.30;;;;;;5049819;28;20021;-61
2023/02/26 08:14:42;;;;;;;5.15;1.30;;;29.20;80.10;;;;;;5048524;28;20021;-61
2023/02/26 08:17:10;;;;;;;3.90;1.08;;;29.20;80.50;;;;;;5049873;28;20027;-61
2023/02/26 08:19:37;;;;;;;4.22;0.95;;;29.20;79.70;;;;;;5049910;28;20379;-61
2023/02/26 08:22:05;;;;;;;6.22;1.90;;;29.20;79.70;;;;;;5049810;28;20029;-61
2023/02/26 08:24:32;;;;;;;5.70;1.50;;;29.20;79.70;;;;;;5048330;28;20029;-61
2023/02/26 08:27:00;;;;;;;10.15;1.85;;;29.20;80.60;;;;;;5049512;28;20021;-61
2023/02/26 08:29:27;;;;;;;10.77;1.30;;;29.10;80.60;;;;;;5048131;28;20108;-61
2023/02/26 08:31:54;;;;;;;5.78;2.17;;;29.00;80.70;;;;;;5049909;28;20140;-62
2023/02/26 08:34:22;;;;;;;7.03;1.67;;;28.90;81.40;;;;;;5049650;28;20078;-61
2023/02/26 08:36:49;;;;;;;7.03;2.90;;;28.80;82.10;;;;;;5049619;28;20033;-60
2023/02/26 08:39:17;;;;;;;8.77;3.47;;;28.70;82.10;;;;;;5049598;28;20025;-61
2023/02/26 08:41:44;;;;;;;6.53;1.90;;;28.60;82.80;;;;;;5048990;28;20096;-61
2023/02/26 08:44:12;;;;;;;8.32;3.05;;;28.50;83.90;;;;;;5049530;28;20075;-61
2023/02/26 08:46:39;;;;;;;3.80;1.80;;;28.40;84.70;;;;;;5049524;28;20024;-61
2023/02/26 08:49:06;;;;;;;5.78;1.30;;;28.20;85.80;;;;;;5049504;28;20032;-61
2023/02/26 08:51:34;;;;;;;6.50;1.20;;;28.10;86.60;;;;;;5049548;28;20087;-61
2023/02/26 08:54:01;;;;;;;4.75;1.48;;;28.10;87.20;;;;;;5049525;28;20091;-61
2023/02/26 08:56:30;;;;;;;4.22;1.35;;;28.00;88.60;;;;;;5049058;28;20385;-61
2023/02/26 08:58:58;;;;;;;4.65;1.00;;;27.80;89.40;;;;;;5049467;28;20074;-61
2023/02/26 09:01:25;;;;;;;4.20;1.10;;;27.70;90.30;;;;;;5052822;28;20428;-61
2023/02/26 09:03:54;;;;;;;6.40;1.70;;;27.60;90.80;;;;;;5052116;28;20123;-61
2023/02/26 09:06:21;;;;;;;8.35;1.77;;;27.60;91.20;;;;;;5053369;28;20021;-61
2023/02/26 09:08:48;;;;;;;4.28;1.20;;;27.50;91.80;;;;;;5052994;28;20031;-61
2023/02/26 09:11:16;;;;;;;6.05;1.58;;;27.50;92.30;;;;;;5053187;28;20024;-60
2023/02/26 09:13:43;;;;;;;5.82;1.15;;;27.40;93.10;;;;;;5053089;28;20439;-61
2023/02/26 09:16:11;;;;;;;7.43;0.98;;;27.20;93.60;;;;;;5052905;28;20048;-61
2023/02/26 09:18:38;;;;;;;5.05;1.55;;;27.10;94.40;;;;;;5052697;28;20380;-61
2023/02/26 09:21:06;;;;;;;6.40;1.55;;;27.10;94.80;;;;;;5052905;28;20069;-61
2023/02/26 09:23:33;;;;;;;4.35;1.40;;;27.10;95.50;;;;;;5052898;28;20017;-62
2023/02/26 09:26:01;;;;;;;3.42;0.90;;;27.00;96.10;;;;;;5048208;28;20020;-61
2023/02/26 09:28:28;;;;;;;3.70;1.08;;;27.00;96.80;;;;;;5051393;28;20037;-61
2023/02/26 09:30:55;;;;;;;3.30;1.00;;;26.90;97.20;;;;;;5065822;28;20025;-63
2023/02/26 09:33:23;;;;;;;6.20;1.10;;;26.80;98.00;;;;;;5051714;28;20079;-62
2023/02/26 09:35:53;;;;;;;5.97;0.93;;;26.80;98.60;;;;;;5050929;28;20483;-61
2023/02/26 09:38:21;;;;;;;4.47;1.60;;;26.70;99.10;;;;;;5054084;28;20029;-61
2023/02/26 09:40:57;;;;;;;4.82;1.95;;;26.70;99.60;;;;;;5046455;28;20637;-61
2023/02/26 09:43:57;;;;;;;3.63;1.10;;;26.60;99.90;;;;;;5053274;28;20029;-62
2023/02/26 09:46:38;;;;;;;5.28;1.30;;;26.50;99.90;;;;;;5053526;28;20355;-61
2023/02/26 09:49:29;;;;;;;2.08;0.90;;;26.50;99.90;;;;;;5046874;28;20095;-62
2023/02/26 09:52:08;;;;;;;4.05;1.00;;;26.50;99.90;;;;;;5048846;28;20029;-62
2023/02/26 09:54:43;;;;;;;3.30;1.42;;;26.50;99.90;;;;;;5052735;28;20036;-62
2023/02/26 09:57:35;;;;;;;6.20;1.20;;;26.50;99.90;;;;;;5044688;28;20017;-62
2023/02/26 10:00:16;;;;;;;4.78;1.00;;;26.50;99.90;;;;;;5052351;28;20033;-62
2023/02/26 10:02:59;;;;;;;9.35;1.30;;;26.50;99.90;;;;;;5053087;28;20032;-62
2023/02/26 10:05:42;;;;;;;6.63;1.13;;;26.40;99.90;;;;;;5065529;28;20056;-62
2023/02/26 10:08:18;;;;;;;5.72;1.17;;;26.30;99.90;;;;;;5056145;28;20021;-62
2023/02/26 10:11:17;;;;;;;5.47;1.73;;;26.30;99.90;;;;;;5050956;28;20021;-62
2023/02/26 10:13:50;;;;;;;4.40;0.98;;;26.10;99.90;;;;;;5051068;28;20036;-61
2023/02/26 10:16:27;;;;;;;8.82;1.45;;;26.10;99.90;;;;;;5054140;28;20166;-62
2023/02/26 10:19:04;;;;;;;3.92;1.52;;;26.00;99.90;;;;;;5052736;28;20071;-61
2023/02/26 10:21:48;;;;;;;7.60;1.40;;;26.00;99.90;;;;;;5054254;28;20512;-62
2023/02/26 10:24:38;;;;;;;;;;;26.00;99.90;;;;;;5049572;28;20096;-62
2023/02/26 10:27:17;;;;;;;6.10;1.00;;;25.90;99.90;;;;;;5045253;28;19921;-62
2023/02/26 10:29:53;;;;;;;7.25;1.20;;;25.90;99.90;;;;;;5046822;28;20025;-62
2023/02/26 10:32:30;;;;;;;7.25;1.38;;;25.80;99.90;;;;;;5060522;28;20083;-62
2023/02/26 10:35:07;;;;;;;3.33;1.58;;;25.80;99.90;;;;;;5040533;28;20026;-62
2023/02/26 10:37:57;;;;;;;2.90;0.93;;;25.60;99.90;;;;;;5049922;28;20032;-62
2023/02/26 10:40:28;;;;;;;5.63;1.15;;;25.50;99.90;;;;;;5063636;28;20493;-62
2023/02/26 10:43:16;;;;;;;3.10;1.23;;;25.40;99.90;;;;;;5055774;28;20032;-62
2023/02/26 10:46:16;;;;;;;5.07;1.00;;;25.30;99.90;;;;;;5059325;28;20074;-61
2023/02/26 10:49:03;;;;;;;7.13;1.30;;;25.20;99.90;;;;;;5058091;28;20021;-61
2023/02/26 10:51:37;;;;;;;4.32;1.17;;;25.10;99.90;;;;;;5058774;28;20478;-61
2023/02/26 10:54:11;;;;;;;;;;;25.00;99.90;;;;;;5055871;28;20025;-61
2023/02/26 10:56:38;;;;;;;9.43;1.98;;;24.90;99.90;;;;;;5052764;28;19923;-61
2023/02/26 10:59:06;;;;;;;5.18;2.05;;;24.80;99.90;;;;;;5056285;28;20036;-61
2023/02/26 11:01:33;;;;;;;5.75;1.83;;;24.70;99.90;;;;;;5051132;28;20032;-61
2023/02/26 11:04:19;;;;;;;12.95;2.25;;;24.60;99.90;;;;;;5064041;28;20028;-61
2023/02/26 11:06:57;;;;;;;4.55;1.38;;;24.50;99.90;;;;;;5049678;28;20020;-61
2023/02/26 11:09:41;;;;;;;6.63;1.33;;;24.40;99.90;;;;;;5052098;28;20382;-61
2023/02/26 11:12:14;;;;;;;5.88;1.88;;;24.30;99.90;;;;;;5065128;28;20461;-59
2023/02/26 11:14:44;;;;;;;5.75;1.48;;;24.40;99.90;;;;;;5049336;28;20042;-59
2023/02/26 11:17:19;;;;;;;7.68;1.13;;;24.60;99.90;;;;;;5042852;28;20055;-59
2023/02/26 11:19:59;;;;;;;6.70;2.00;;;24.70;99.90;;;;;;5047977;28;20669;-60
2023/02/26 11:22:30;;;;;;;4.80;1.20;;;24.80;99.90;;;;;;5046467;28;20043;-60
2023/02/26 11:24:58;;;;;;;2.85;0.85;;;24.80;99.90;;;;;;5047108;28;20028;-61
2023/02/26 11:27:56;;;;;;;6.43;0.98;;;24.90;99.90;;;;;;5040406;28;20389;-60
2023/02/26 11:30:28;;;;;;;3.85;1.05;;;25.00;99.90;;;;;;5047020;28;20444;-61
2023/02/26 11:33:03;;;;;;;4.32;1.00;;;25.10;99.90;;;;;;5061761;28;20116;-60
2023/02/26 11:35:30;;;;;;;3.30;0.80;;;25.20;99.90;;;;;;5044949;28;20056;-62
2023/02/26 11:38:01;;;;;;;4.88;1.55;;;25.20;99.90;;;;;;5046222;28;20029;-63
2023/02/26 11:40:41;;;;;;;6.05;1.27;;;25.30;99.90;;;;;;5045218;28;20480;-59
2023/02/26 11:43:14;;;;;;;4.38;0.80;;;25.30;99.90;;;;;;5040774;28;20588;-60
2023/02/26 11:45:45;;;;;;;3.42;1.17;;;25.40;99.90;;;;;;5052985;28;20032;-60
2023/02/26 11:48:24;;;;;;;1.70;0.80;;;25.40;99.90;;;;;;5047432;28;20032;-60
2023/02/26 11:50:56;;;;;;;3.92;1.40;;;25.40;99.90;;;;;;5048187;28;20028;-60
2023/02/26 11:54:00;;;;;;;10.23;2.17;;;25.40;99.90;;;;;;5059030;28;20129;-62
2023/02/26 11:56:41;;;;;;;7.97;2.08;;;25.20;99.90;;;;;;5048207;28;20501;-62
2023/02/26 11:59:25;;;;;;;4.60;1.80;;;24.90;99.90;;;;;;5058490;28;20048;-62
2023/02/26 12:01:53;;;;;;;3.83;1.70;;;24.70;99.90;;;;;;5062853;28;20037;-62
2023/02/26 12:04:24;;;;;;;12.05;3.75;;;24.50;99.90;;;;;;5045171;28;20424;-62
2023/02/26 12:06:53;;;;;;;11.65;2.38;;;24.20;99.90;;;;;;5056924;28;20147;-60
2023/02/26 12:09:21;;;;;;;7.00;1.95;;;23.80;99.90;;;;;;5044946;28;20086;-60
2023/02/26 12:11:52;;;;;;;4.90;1.85;;;23.40;99.90;;;;;;5046502;28;20033;-59
2023/02/26 12:14:38;;;;;;;9.20;3.58;;;23.30;99.90;;;;;;5061546;28;20029;-61
2023/02/26 12:17:36;;;;;;;9.18;2.22;;;23.30;99.90;;;;;;5037340;28;20021;-59
2023/02/26 12:20:40;;;;;;;8.38;2.20;;;23.10;99.90;;;;;;5039524;28;20017;-60
2023/02/26 12:23:44;;;;;;;8.02;2.47;;;22.90;99.90;;;;;;5044561;28;20430;-62
2023/02/26 12:27:00;;;;;;;8.40;2.65;;;22.90;99.90;;;;;;5044101;28;20454;-60
2023/02/26 12:29:41;;;;;;;5.82;2.00;;;22.90;99.90;;;;;;5044119;28;20074;-60
2023/02/26 12:32:31;;;;;;;10.10;2.53;;;22.90;99.90;;;;;;5044348;28;20053;-60
2023/02/26 12:35:34;;;;;;;7.68;2.38;;;23.00;99.90;;;;;;5049734;28;20047;-59
2023/02/26 12:38:13;;;;;;;6.15;2.00;;;23.00;99.90;;;;;;5050683;28;20032;-59
2023/02/26 12:41:16;;;;;;;5.70;1.80;;;23.00;99.90;;;;;;5049542;28;20036;-60
2023/02/26 12:43:54;;;;;;;6.72;2.05;;;23.00;99.90;;;;;;5040261;28;20041;-62
2023/02/26 12:46:42;;;;;;;10.13;2.08;;;22.90;99.90;;;;;;5050752;28;20035;-60
2023/02/26 12:49:26;;;;;;;9.32;2.15;;;22.80;99.90;;;;;;5043062;28;20064;-60
2023/02/26 12:52:02;;;;;;;10.95;2.38;;;22.70;99.90;;;;;;5054945;28;20045;-60
2023/02/26 12:54:40;;;;;;;5.80;2.22;;;22.60;99.90;;;;;;5046205;28;20035;-62
2023/02/26 12:57:44;;;;;;;8.13;2.17;;;22.50;99.90;;;;;;5040240;28;20023;-60
2023/02/26 13:00:11;;;;;;;10.68;2.00;;;22.60;99.90;;;;;;5050011;28;20028;-60
2023/02/26 13:03:12;;;;;;;7.57;2.58;;;22.70;99.90;;;;;;5051673;28;20047;-60
2023/02/26 13:06:03;;;;;;;7.93;2.03;;;22.70;99.90;;;;;;5060466;28;20037;-61
2023/02/26 13:08:47;;;;;;;7.43;1.95;;;22.80;99.90;;;;;;5046085;28;20112;-60
2023/02/26 13:11:39;;;;;;;5.28;1.70;;;22.80;99.90;;;;;;5046668;28;20029;-60
2023/02/26 13:14:33;;;;;;;8.98;2.00;;;22.80;99.90;;;;;;5067271;28;20029;-61
2023/02/26 13:17:20;;;;;;;9.10;1.60;;;22.80;99.90;;;;;;5049577;28;20025;-60
2023/02/26 13:19:55;;;;;;;4.63;1.38;;;23.00;99.90;;;;;;5030615;28;20742;-60
2023/02/26 13:22:29;;;;;;;10.27;1.95;;;23.10;99.90;;;;;;5057948;28;20037;-60